sensor_id;sensor_type;location;lat;lon;timestamp;pressure;altitude;pressure_sealevel;temperature;humidity
62293;BME280;48292;47.724;18.992;2022-08-19T03:34:28;96934.05;;;21.37;60.37
62293;BME280;48292;47.724;18.992;2022-08-19T03:39:30;96934.05;;;21.37;60.37
62293;BME280;48292;47.724;18.992;2022-08-19T03:44:32;96935.59;;;21.41;60.38
62293;BME280;48292;47.724;18.992;2022-08-19T03:49:34;96935.59;;;21.41;60.38
62293;BME280;48292;47.724;18.992;2022-08-19T03:54:37;96931.56;;;21.38;59.58
62293;BME280;48292;47.724;18.992;2022-08-19T03:59:39;96931.56;;;21.38;59.58
62293;BME280;48292;47.724;18.992;2022-08-19T04:04:42;96937.66;;;21.39;59.35
62293;BME280;48292;47.724;18.992;2022-08-19T04:09:44;96945.72;;;21.48;58.97
62293;BME280;48292;47.724;18.992;2022-08-19T04:14:46;96945.72;;;21.48;58.97
62293;BME280;48292;47.724;18.992;2022-08-19T04:19:48;96955.87;;;21.49;59.11
62293;BME280;48292;47.724;18.992;2022-08-19T04:24:49;96955.87;;;21.49;59.11
62293;BME280;48292;47.724;18.992;2022-08-19T04:29:51;96961.7;;;21.59;58.69
62293;BME280;48292;47.724;18.992;2022-08-19T04:34:53;96961.7;;;21.59;58.69
62293;BME280;48292;47.724;18.992;2022-08-19T04:39:59;96951.42;;;21.75;58.53
62293;BME280;48292;47.724;18.992;2022-08-19T04:45:04;96951.42;;;21.75;58.53
62293;BME280;48292;47.724;18.992;2022-08-19T04:50:13;96971.49;;;21.89;58.56
62293;BME280;48292;47.724;18.992;2022-08-19T04:55:15;96971.49;;;21.89;58.56
62293;BME280;48292;47.724;18.992;2022-08-19T05:00:17;96960.26;;;21.88;58.83
62293;BME280;48292;47.724;18.992;2022-08-19T05:05:19;96960.26;;;21.88;58.83
62293;BME280;48292;47.724;18.992;2022-08-19T05:10:21;96962.19;;;21.86;58.99
62293;BME280;48292;47.724;18.992;2022-08-19T05:15:22;96962.19;;;21.86;58.99
62293;BME280;48292;47.724;18.992;2022-08-19T05:20:24;96949.59;;;22.01;59.04
62293;BME280;48292;47.724;18.992;2022-08-19T05:25:26;96953.09;;;22.18;58.83
62293;BME280;48292;47.724;18.992;2022-08-19T05:30:28;96953.09;;;22.18;58.83
62293;BME280;48292;47.724;18.992;2022-08-19T05:35:34;96960.23;;;22.35;59.08
62293;BME280;48292;47.724;18.992;2022-08-19T05:40:37;96960.23;;;22.35;59.08
62293;BME280;48292;47.724;18.992;2022-08-19T05:45:40;96962.16;;;22.6;57.55
62293;BME280;48292;47.724;18.992;2022-08-19T05:50:42;96962.16;;;22.6;57.55
62293;BME280;48292;47.724;18.992;2022-08-19T05:55:44;96964.92;;;23.02;57.52
62293;BME280;48292;47.724;18.992;2022-08-19T06:00:46;96964.92;;;23.02;57.52
62293;BME280;48292;47.724;18.992;2022-08-19T06:05:48;96963.81;;;23.29;56.66
62293;BME280;48292;47.724;18.992;2022-08-19T06:10:53;96963.81;;;23.29;56.66
62293;BME280;48292;47.724;18.992;2022-08-19T06:15:55;96970.55;;;23.45;55.95
62293;BME280;48292;47.724;18.992;2022-08-19T06:20:56;96970.55;;;23.45;55.95
62293;BME280;48292;47.724;18.992;2022-08-19T06:25:58;96977.86;;;24.11;52.49
62293;BME280;48292;47.724;18.992;2022-08-19T06:31:05;96977.86;;;24.11;52.49
62293;BME280;48292;47.724;18.992;2022-08-19T06:36:07;96979.34;;;25.07;48.4
62293;BME280;48292;47.724;18.992;2022-08-19T06:41:09;96967.08;;;25.65;46.81
62293;BME280;48292;47.724;18.992;2022-08-19T06:46:12;96967.08;;;25.65;46.81
62293;BME280;48292;47.724;18.992;2022-08-19T06:51:17;96965.59;;;26.14;45.02
62293;BME280;48292;47.724;18.992;2022-08-19T06:56:24;96965.59;;;26.14;45.02
62293;BME280;48292;47.724;18.992;2022-08-19T07:01:26;96968.19;;;26.5;45.03
62293;BME280;48292;47.724;18.992;2022-08-19T07:06:28;96968.19;;;26.5;45.03
62293;BME280;48292;47.724;18.992;2022-08-19T07:11:33;96988.95;;;26.55;43.92
62293;BME280;48292;47.724;18.992;2022-08-19T07:16:35;96988.95;;;26.55;43.92
62293;BME280;48292;47.724;18.992;2022-08-19T07:21:44;96988.15;;;26.8;44.19
62293;BME280;48292;47.724;18.992;2022-08-19T07:26:46;96988.15;;;26.8;44.19
62293;BME280;48292;47.724;18.992;2022-08-19T07:31:53;96986.38;;;27.09;42.42
62293;BME280;48292;47.724;18.992;2022-08-19T07:36:55;96986.38;;;27.09;42.42
62293;BME280;48292;47.724;18.992;2022-08-19T07:41:58;96986.81;;;28.61;39.63
62293;BME280;48292;47.724;18.992;2022-08-19T07:47:00;96986.81;;;28.61;39.63
62293;BME280;48292;47.724;18.992;2022-08-19T07:52:04;96985.41;;;30.05;36.57
62293;BME280;48292;47.724;18.992;2022-08-19T07:57:06;96994.45;;;30.05;37.57
62293;BME280;48292;47.724;18.992;2022-08-19T08:02:08;96994.45;;;30.05;37.57
62293;BME280;48292;47.724;18.992;2022-08-19T08:07:10;96990.98;;;30.31;36.15
62293;BME280;48292;47.724;18.992;2022-08-19T08:12:13;96990.98;;;30.31;36.15
62293;BME280;48292;47.724;18.992;2022-08-19T08:17:21;96987.01;;;32.13;33.96
62293;BME280;48292;47.724;18.992;2022-08-19T08:22:27;96987.01;;;32.13;33.96
62293;BME280;48292;47.724;18.992;2022-08-19T08:27:28;96980.02;;;31.82;32.53
62293;BME280;48292;47.724;18.992;2022-08-19T08:32:34;96980.02;;;31.82;32.53
62293;BME280;48292;47.724;18.992;2022-08-19T08:37:38;96987.47;;;31.94;32.15
62293;BME280;48292;47.724;18.992;2022-08-19T08:42:43;96987.47;;;31.94;32.15
62293;BME280;48292;47.724;18.992;2022-08-19T08:47:47;96977.86;;;32.7;31.52
62293;BME280;48292;47.724;18.992;2022-08-19T08:52:52;96977.86;;;32.7;31.52
62293;BME280;48292;47.724;18.992;2022-08-19T08:57:57;96969.1;;;32.31;31.06
62293;BME280;48292;47.724;18.992;2022-08-19T09:03:01;96957.36;;;31.85;32.08
62293;BME280;48292;47.724;18.992;2022-08-19T09:08:07;96957.36;;;31.85;32.08
62293;BME280;48292;47.724;18.992;2022-08-19T09:13:17;96963.83;;;33.1;31.24
62293;BME280;48292;47.724;18.992;2022-08-19T09:18:23;96963.83;;;33.1;31.24
62293;BME280;48292;47.724;18.992;2022-08-19T09:23:30;96971.39;;;33.83;29.45
62293;BME280;48292;47.724;18.992;2022-08-19T09:28:36;96971.39;;;33.83;29.45
62293;BME280;48292;47.724;18.992;2022-08-19T09:33:50;96959.64;;;33.55;29.9
62293;BME280;48292;47.724;18.992;2022-08-19T09:38:54;96959.64;;;33.55;29.9
62293;BME280;48292;47.724;18.992;2022-08-19T09:43:57;96947.85;;;33.15;29.05
62293;BME280;48292;47.724;18.992;2022-08-19T09:49:00;96947.85;;;33.15;29.05
62293;BME280;48292;47.724;18.992;2022-08-19T09:54:06;96922.31;;;35.31;26.33
62293;BME280;48292;47.724;18.992;2022-08-19T09:59:12;96922.31;;;35.31;26.33
62293;BME280;48292;47.724;18.992;2022-08-19T10:04:14;96922.38;;;34.99;25.84
62293;BME280;48292;47.724;18.992;2022-08-19T10:09:20;96914.7;;;33.91;27.48
62293;BME280;48292;47.724;18.992;2022-08-19T10:14:26;96914.7;;;33.91;27.48
62293;BME280;48292;47.724;18.992;2022-08-19T10:19:28;96918.09;;;34.44;26.05
62293;BME280;48292;47.724;18.992;2022-08-19T10:24:30;96918.09;;;34.44;26.05
62293;BME280;48292;47.724;18.992;2022-08-19T10:29:32;96911.98;;;34.37;26.76
62293;BME280;48292;47.724;18.992;2022-08-19T10:34:35;96911.98;;;34.37;26.76
62293;BME280;48292;47.724;18.992;2022-08-19T10:39:41;96903.4;;;35.54;26.46
62293;BME280;48292;47.724;18.992;2022-08-19T10:44:45;96903.4;;;35.54;26.46
62293;BME280;48292;47.724;18.992;2022-08-19T10:49:48;96905.55;;;34.78;25.42
62293;BME280;48292;47.724;18.992;2022-08-19T10:54:50;96905.55;;;34.78;25.42
62293;BME280;48292;47.724;18.992;2022-08-19T10:59:52;96903.64;;;34.86;25.23
62293;BME280;48292;47.724;18.992;2022-08-19T11:04:53;96903.64;;;34.86;25.23
62293;BME280;48292;47.724;18.992;2022-08-19T11:09:58;96909.27;;;35.24;25.51
62293;BME280;48292;47.724;18.992;2022-08-19T11:15:00;96909.27;;;35.24;25.51
62293;BME280;48292;47.724;18.992;2022-08-19T11:20:02;96904.95;;;35.08;26.26
62293;BME280;48292;47.724;18.992;2022-08-19T11:25:05;96905.02;;;35.73;24.84
62293;BME280;48292;47.724;18.992;2022-08-19T11:30:07;96905.02;;;35.73;24.84
62293;BME280;48292;47.724;18.992;2022-08-19T11:35:15;96906.69;;;35.6;26.26
62293;BME280;48292;47.724;18.992;2022-08-19T11:40:17;96906.69;;;35.6;26.26
62293;BME280;48292;47.724;18.992;2022-08-19T11:45:20;96902.08;;;35.8;26.31
62293;BME280;48292;47.724;18.992;2022-08-19T11:50:21;96902.08;;;35.8;26.31
62293;BME280;48292;47.724;18.992;2022-08-19T11:55:23;96902.83;;;36.19;24.41
62293;BME280;48292;47.724;18.992;2022-08-19T12:00:25;96902.83;;;36.19;24.41
62293;BME280;48292;47.724;18.992;2022-08-19T12:05:27;96897.55;;;36.6;22.67
62293;BME280;48292;47.724;18.992;2022-08-19T12:10:29;96897.55;;;36.6;22.67
62293;BME280;48292;47.724;18.992;2022-08-19T12:15:31;96876.56;;;36.48;22.88
62293;BME280;48292;47.724;18.992;2022-08-19T12:20:38;96876.56;;;36.48;22.88
62293;BME280;48292;47.724;18.992;2022-08-19T12:25:43;96879.2;;;36.59;22.66
62293;BME280;48292;47.724;18.992;2022-08-19T12:30:45;96879.2;;;36.59;22.66
62293;BME280;48292;47.724;18.992;2022-08-19T12:35:49;96886.69;;;36.4;23.4
62293;BME280;48292;47.724;18.992;2022-08-19T12:40:50;96888.95;;;36.24;24.1
62293;BME280;48292;47.724;18.992;2022-08-19T12:45:52;96888.95;;;36.24;24.1
62293;BME280;48292;47.724;18.992;2022-08-19T12:50:57;96873.39;;;37.13;21.75
62293;BME280;48292;47.724;18.992;2022-08-19T12:55:59;96873.39;;;37.13;21.75
62293;BME280;48292;47.724;18.992;2022-08-19T13:01:07;96855.89;;;37.26;21.81
62293;BME280;48292;47.724;18.992;2022-08-19T13:06:10;96855.89;;;37.26;21.81
62293;BME280;48292;47.724;18.992;2022-08-19T13:11:12;96854.05;;;37.21;23.11
62293;BME280;48292;47.724;18.992;2022-08-19T13:16:14;96854.05;;;37.21;23.11
62293;BME280;48292;47.724;18.992;2022-08-19T13:21:16;96853.69;;;38.51;22.62
62293;BME280;48292;47.724;18.992;2022-08-19T13:26:23;96853.69;;;38.51;22.62
62293;BME280;48292;47.724;18.992;2022-08-19T13:31:26;96862.23;;;36.62;22.9
62293;BME280;48292;47.724;18.992;2022-08-19T13:36:28;96862.23;;;36.62;22.9
62293;BME280;48292;47.724;18.992;2022-08-19T13:41:30;96849.94;;;34.75;25.71
62293;BME280;48292;47.724;18.992;2022-08-19T13:46:32;96849.94;;;34.75;25.71
62293;BME280;48292;47.724;18.992;2022-08-19T13:51:34;96849.63;;;34.36;26.9
62293;BME280;48292;47.724;18.992;2022-08-19T13:56:39;96858.47;;;33.28;29.75
62293;BME280;48292;47.724;18.992;2022-08-19T14:01:41;96858.47;;;33.28;29.75
62293;BME280;48292;47.724;18.992;2022-08-19T14:06:43;96899.13;;;31.22;33.19
62293;BME280;48292;47.724;18.992;2022-08-19T14:11:45;96899.13;;;31.22;33.19
62293;BME280;48292;47.724;18.992;2022-08-19T14:16:46;96909.69;;;31.1;34.73
62293;BME280;48292;47.724;18.992;2022-08-19T14:21:48;96909.69;;;31.1;34.73
62293;BME280;48292;47.724;18.992;2022-08-19T14:26:50;96892.94;;;30.14;37.21
62293;BME280;48292;47.724;18.992;2022-08-19T14:31:54;96892.94;;;30.14;37.21
62293;BME280;48292;47.724;18.992;2022-08-19T14:36:56;96897.61;;;29.76;38.48
62293;BME280;48292;47.724;18.992;2022-08-19T14:41:58;96897.61;;;29.76;38.48
62293;BME280;48292;47.724;18.992;2022-08-19T14:47:01;96888.72;;;30.41;37.78
62293;BME280;48292;47.724;18.992;2022-08-19T14:52:05;96888.72;;;30.41;37.78
62293;BME280;48292;47.724;18.992;2022-08-19T14:57:10;96880.5;;;29.58;38.74
62293;BME280;48292;47.724;18.992;2022-08-19T15:02:12;96877.12;;;28.16;41.06
62293;BME280;48292;47.724;18.992;2022-08-19T15:07:18;96877.12;;;28.16;41.06
62293;BME280;48292;47.724;18.992;2022-08-19T15:12:21;96899.22;;;28.11;39.29
62293;BME280;48292;47.724;18.992;2022-08-19T15:17:23;96899.22;;;28.11;39.29
62293;BME280;48292;47.724;18.992;2022-08-19T15:22:29;96916.67;;;27.95;37.09
62293;BME280;48292;47.724;18.992;2022-08-19T15:27:31;96916.67;;;27.95;37.09
62293;BME280;48292;47.724;18.992;2022-08-19T15:32:33;96938.16;;;28.15;36.3
62293;BME280;48292;47.724;18.992;2022-08-19T15:37:35;96938.16;;;28.15;36.3
62293;BME280;48292;47.724;18.992;2022-08-19T15:42:39;96955.25;;;27.88;35.93
62293;BME280;48292;47.724;18.992;2022-08-19T15:47:40;96955.25;;;27.88;35.93
62293;BME280;48292;47.724;18.992;2022-08-19T15:52:44;96970.33;;;27.69;35.83
62293;BME280;48292;47.724;18.992;2022-08-19T15:57:51;96970.33;;;27.69;35.83
62293;BME280;48292;47.724;18.992;2022-08-19T16:02:55;96927.52;;;27.55;35.57
62293;BME280;48292;47.724;18.992;2022-08-19T16:07:57;96927.52;;;27.55;35.57
62293;BME280;48292;47.724;18.992;2022-08-19T16:12:59;96854.02;;;27.57;35.72
62293;BME280;48292;47.724;18.992;2022-08-19T16:18:03;96864.11;;;27.46;36.53
62293;BME280;48292;47.724;18.992;2022-08-19T16:23:04;96864.11;;;27.46;36.53
62293;BME280;48292;47.724;18.992;2022-08-19T16:28:06;96845.11;;;27.26;36.77
62293;BME280;48292;47.724;18.992;2022-08-19T16:33:11;96845.11;;;27.26;36.77
62293;BME280;48292;47.724;18.992;2022-08-19T16:38:17;96859.52;;;27.15;37.58
62293;BME280;48292;47.724;18.992;2022-08-19T16:43:19;96859.52;;;27.15;37.58
62293;BME280;48292;47.724;18.992;2022-08-19T16:48:21;96896.25;;;27.03;38.21
62293;BME280;48292;47.724;18.992;2022-08-19T16:53:24;96896.25;;;27.03;38.21
62293;BME280;48292;47.724;18.992;2022-08-19T16:58:33;96939.03;;;26.84;39.2
62293;BME280;48292;47.724;18.992;2022-08-19T17:03:35;96939.03;;;26.84;39.2
62293;BME280;48292;47.724;18.992;2022-08-19T17:08:38;96947.88;;;26.8;38.84
62293;BME280;48292;47.724;18.992;2022-08-19T17:13:40;96947.88;;;26.8;38.84
62293;BME280;48292;47.724;18.992;2022-08-19T17:18:51;97021.77;;;26.71;39.21
62293;BME280;48292;47.724;18.992;2022-08-19T17:23:54;97022.63;;;26.48;39.9
62293;BME280;48292;47.724;18.992;2022-08-19T17:28:56;97022.63;;;26.48;39.9
62293;BME280;48292;47.724;18.992;2022-08-19T17:33:59;96995.63;;;26.33;40.48
62293;BME280;48292;47.724;18.992;2022-08-19T17:39:01;96995.63;;;26.33;40.48
62293;BME280;48292;47.724;18.992;2022-08-19T17:44:03;96931.69;;;26.02;40.92
62293;BME280;48292;47.724;18.992;2022-08-19T17:49:05;96931.69;;;26.02;40.92
62293;BME280;48292;47.724;18.992;2022-08-19T17:54:07;96875.2;;;26.17;40.46
62293;BME280;48292;47.724;18.992;2022-08-19T17:59:09;96875.2;;;26.17;40.46
62293;BME280;48292;47.724;18.992;2022-08-19T18:04:15;96864.11;;;25.66;42.96
62293;BME280;48292;47.724;18.992;2022-08-19T18:09:17;96864.11;;;25.66;42.96
62293;BME280;48292;47.724;18.992;2022-08-19T18:14:27;96858.72;;;25.41;42.52
62293;BME280;48292;47.724;18.992;2022-08-19T18:19:35;96858.72;;;25.41;42.52
62293;BME280;48292;47.724;18.992;2022-08-19T18:24:41;96850.87;;;25.39;43.52
62293;BME280;48292;47.724;18.992;2022-08-19T18:29:46;96861.97;;;25.47;43.54
62293;BME280;48292;47.724;18.992;2022-08-19T18:34:48;96861.97;;;25.47;43.54
62293;BME280;48292;47.724;18.992;2022-08-19T18:39:50;96962.95;;;25.09;44.58
62293;BME280;48292;47.724;18.992;2022-08-19T18:44:52;96962.95;;;25.09;44.58
62293;BME280;48292;47.724;18.992;2022-08-19T18:49:58;96965.56;;;25.43;41.12
62293;BME280;48292;47.724;18.992;2022-08-19T18:54:59;96965.56;;;25.43;41.12
62293;BME280;48292;47.724;18.992;2022-08-19T19:00:03;97058.14;;;25.43;42.24
62293;BME280;48292;47.724;18.992;2022-08-19T19:05:05;97058.14;;;25.43;42.24
62293;BME280;48292;47.724;18.992;2022-08-19T19:10:14;97091.31;;;24.99;51.79
62293;BME280;48292;47.724;18.992;2022-08-19T19:15:23;97091.31;;;24.99;51.79
62293;BME280;48292;47.724;18.992;2022-08-19T19:20:25;97131.61;;;22.17;65.01
62293;BME280;48292;47.724;18.992;2022-08-19T19:25:31;97131.61;;;22.17;65.01
62293;BME280;48292;47.724;18.992;2022-08-19T19:30:37;97105.24;;;21.89;64.94
62293;BME280;48292;47.724;18.992;2022-08-19T19:35:39;97105.24;;;21.89;64.94
62293;BME280;48292;47.724;18.992;2022-08-19T19:40:45;97040.48;;;21.46;68.95
62293;BME280;48292;47.724;18.992;2022-08-19T19:45:47;97035.06;;;20.76;71.14
62293;BME280;48292;47.724;18.992;2022-08-19T19:50:49;97035.06;;;20.76;71.14
62293;BME280;48292;47.724;18.992;2022-08-19T19:55:55;97019.81;;;20.39;73.0
62293;BME280;48292;47.724;18.992;2022-08-19T20:00:58;97019.81;;;20.39;73.0
62293;BME280;48292;47.724;18.992;2022-08-19T20:06:01;97030.87;;;19.81;77.1
62293;BME280;48292;47.724;18.992;2022-08-19T20:11:04;97030.87;;;19.81;77.1
62293;BME280;48292;47.724;18.992;2022-08-19T20:16:06;97026.11;;;19.61;81.42
62293;BME280;48292;47.724;18.992;2022-08-19T20:21:08;97026.11;;;19.61;81.42
62293;BME280;48292;47.724;18.992;2022-08-19T20:26:10;96996.98;;;19.67;83.71
62293;BME280;48292;47.724;18.992;2022-08-19T20:31:16;96996.98;;;19.67;83.71
62293;BME280;48292;47.724;18.992;2022-08-19T20:36:18;97050.34;;;19.5;88.72
62293;BME280;48292;47.724;18.992;2022-08-19T20:41:20;97050.34;;;19.5;88.72
62293;BME280;48292;47.724;18.992;2022-08-19T20:46:21;97188.28;;;19.38;87.29
62293;BME280;48292;47.724;18.992;2022-08-19T20:51:23;97188.28;;;19.38;87.29
62293;BME280;48292;47.724;18.992;2022-08-19T20:56:25;97188.28;;;19.38;87.29
62293;BME280;48292;47.724;18.992;2022-08-19T21:01:29;97188.28;;;19.38;87.29
62293;BME280;48292;47.724;18.992;2022-08-19T21:06:31;97188.28;;;19.38;87.29
62293;BME280;48292;47.724;18.992;2022-08-19T21:11:33;97188.28;;;19.38;87.29
62293;BME280;48292;47.724;18.992;2022-08-19T21:16:35;97188.28;;;19.38;87.29
62293;BME280;48292;47.724;18.992;2022-08-19T21:21:37;97188.28;;;19.38;87.29
62293;BME280;48292;47.724;18.992;2022-08-19T21:26:39;97188.28;;;19.38;87.29
62293;BME280;48292;47.724;18.992;2022-08-19T21:31:41;97188.28;;;19.38;87.29
62293;BME280;48292;47.724;18.992;2022-08-19T21:36:43;97188.28;;;19.38;87.29
